createdAt,value
2023-03-11T09:52:16.249Z,6.86
2023-03-11T09:54:19.814Z,6.86
2023-03-11T09:56:24.334Z,6.36
2023-03-11T09:58:47.806Z,6.41
2023-03-11T10:00:52.440Z,6.76
2023-03-11T10:02:56.710Z,6.44
2023-03-11T10:05:08.323Z,6.43
2023-03-11T10:07:22.051Z,6.48
2023-03-11T10:09:44.209Z,6.64
2023-03-11T10:12:05.783Z,6.47
2023-03-11T10:14:43.822Z,6.30
2023-03-11T10:17:24.119Z,6.14
2023-03-11T10:19:29.404Z,5.88
2023-03-11T10:21:38.828Z,5.77
2023-03-11T10:24:11.194Z,5.77
2023-03-11T10:26:37.321Z,5.65
2023-03-11T10:28:51.906Z,5.78
2023-03-11T10:31:27.102Z,5.74
2023-03-11T10:33:49.404Z,5.50
2023-03-11T10:35:55.201Z,5.35
2023-03-11T10:38:03.705Z,5.30
2023-03-11T10:40:26.000Z,5.24
2023-03-11T10:42:29.793Z,5.14
2023-03-11T10:44:36.413Z,5.09
2023-03-11T10:46:39.402Z,5.15
2023-03-11T10:48:42.799Z,5.26
2023-03-11T10:51:01.087Z,5.25
2023-03-11T10:53:15.226Z,5.52
2023-03-11T10:55:20.106Z,5.85
2023-03-11T10:57:44.338Z,6.01
2023-03-11T10:59:50.762Z,5.89
2023-03-11T11:01:58.584Z,5.92
2023-03-11T11:04:02.770Z,6.10
2023-03-11T11:06:07.688Z,6.24
2023-03-11T11:08:16.081Z,6.09
2023-03-11T11:10:22.830Z,6.04
2023-03-11T11:12:25.366Z,6.16
2023-03-11T11:14:52.032Z,6.37
2023-03-11T11:16:57.781Z,6.70
2023-03-11T11:19:12.398Z,7.02
2023-03-11T11:21:38.374Z,6.73
2023-03-11T11:23:49.863Z,7.24
2023-03-11T11:26:05.233Z,7.34
2023-03-11T11:28:21.794Z,7.45
2023-03-11T11:30:26.639Z,7.43
2023-03-11T11:32:30.378Z,7.46
2023-03-11T11:34:35.313Z,7.41
2023-03-11T11:36:39.245Z,7.53
2023-03-11T11:38:45.110Z,7.70
2023-03-11T11:40:47.851Z,7.47
2023-03-11T11:43:00.848Z,7.19
2023-03-11T11:45:12.675Z,7.00
2023-03-11T11:47:24.386Z,6.91
2023-03-11T11:49:33.585Z,6.63
2023-03-11T11:51:44.767Z,6.64
2023-03-11T11:53:47.364Z,6.96
2023-03-11T11:55:54.468Z,6.93
2023-03-11T11:57:58.011Z,7.15
2023-03-11T12:00:05.415Z,7.15
2023-03-11T12:02:26.714Z,7.28
2023-03-11T12:04:36.988Z,6.92
2023-03-11T12:07:14.967Z,6.92
2023-03-11T12:09:53.583Z,7.24
2023-03-11T12:12:25.468Z,8.39
2023-03-11T12:14:43.979Z,7.99
2023-03-11T12:16:54.265Z,8.52
2023-03-11T12:19:18.255Z,7.59
2023-03-11T12:21:55.027Z,9.26
2023-03-11T12:24:28.367Z,9.68
2023-03-11T12:26:39.020Z,9.76
2023-03-11T12:28:54.856Z,8.86
2023-03-11T12:31:05.356Z,8.49
2023-03-11T12:33:52.140Z,9.19
2023-03-11T12:35:58.280Z,9.34
2023-03-11T12:38:13.783Z,8.83
2023-03-11T12:40:54.065Z,8.69
2023-03-11T12:43:00.012Z,8.68
2023-03-11T12:45:46.176Z,8.93
2023-03-11T12:48:27.626Z,8.33
2023-03-11T12:50:42.380Z,7.49
2023-03-11T12:52:55.499Z,7.83
2023-03-11T12:55:01.481Z,7.47
2023-03-11T12:57:19.799Z,7.21
2023-03-11T12:59:41.589Z,7.29
2023-03-11T13:02:09.755Z,7.12
2023-03-11T13:04:22.603Z,6.61
2023-03-11T13:06:31.156Z,6.44
2023-03-11T13:08:33.685Z,6.85
2023-03-11T13:10:41.062Z,6.76
2023-03-11T13:12:44.003Z,6.47
2023-03-11T13:14:46.758Z,6.31
2023-03-11T13:16:50.355Z,6.37
2023-03-11T13:18:53.171Z,6.50
2023-03-11T13:21:01.477Z,7.24
2023-03-11T13:23:14.385Z,7.35
2023-03-11T13:25:27.349Z,6.50
2023-03-11T13:27:42.176Z,6.17
2023-03-11T13:30:05.499Z,6.21
2023-03-11T13:33:06.090Z,6.22
2023-03-11T13:35:28.055Z,6.73
2023-03-11T13:37:54.486Z,7.35
2023-03-11T13:40:14.709Z,7.71
2023-03-11T13:42:44.610Z,8.07
2023-03-11T13:44:48.244Z,7.48
2023-03-11T13:46:55.282Z,7.10
2023-03-11T13:49:27.357Z,6.76
2023-03-11T13:51:42.864Z,6.82
2023-03-11T13:53:52.056Z,6.17
2023-03-11T13:55:55.512Z,6.02
2023-03-11T13:57:58.736Z,6.13
2023-03-11T14:00:17.868Z,6.29
2023-03-11T14:02:24.515Z,6.25
2023-03-11T14:04:36.552Z,6.49
2023-03-11T14:06:39.203Z,6.41
2023-03-11T14:08:43.505Z,6.35
2023-03-11T14:11:00.908Z,6.22
2023-03-11T14:13:22.734Z,6.23
2023-03-11T14:15:30.324Z,6.52
2023-03-11T14:17:33.051Z,6.42
2023-03-11T14:19:37.706Z,6.40
2023-03-11T14:21:59.874Z,6.35
2023-03-11T14:24:03.758Z,6.39
2023-03-11T14:26:19.061Z,6.35
2023-03-11T14:28:23.548Z,6.20
2023-03-11T14:30:32.744Z,5.98
2023-03-11T14:32:36.308Z,5.99
2023-03-11T14:34:40.978Z,5.92
2023-03-11T14:36:45.470Z,6.02
2023-03-11T14:38:49.568Z,5.83
2023-03-11T14:41:06.750Z,5.78
2023-03-11T14:43:12.282Z,5.65
2023-03-11T14:45:21.882Z,5.62
2023-03-11T14:48:08.589Z,5.69
2023-03-11T14:50:19.762Z,5.65
2023-03-11T14:52:43.579Z,5.63
2023-03-11T14:54:50.286Z,5.81
2023-03-11T14:57:16.002Z,5.83
2023-03-11T14:59:29.040Z,5.99
2023-03-11T15:01:39.894Z,6.15
2023-03-11T15:04:00.514Z,6.09
2023-03-11T15:06:15.382Z,5.92
2023-03-11T15:08:26.045Z,5.85
2023-03-11T15:10:29.122Z,6.02
2023-03-11T15:12:44.463Z,6.30
2023-03-11T15:14:52.252Z,6.36
2023-03-11T15:16:56.951Z,6.28
2023-03-11T15:19:02.669Z,6.18
2023-03-11T15:21:19.536Z,6.05
2023-03-11T15:23:23.512Z,5.71
2023-03-11T15:25:27.706Z,5.58
2023-03-11T15:27:33.833Z,5.39
2023-03-11T15:29:37.349Z,5.30
2023-03-11T15:31:45.412Z,5.28
2023-03-11T15:33:51.969Z,5.34
2023-03-11T15:35:55.356Z,5.34
2023-03-11T15:38:21.410Z,5.34
2023-03-11T15:40:44.473Z,5.20
2023-03-11T15:42:50.500Z,5.36
2023-03-11T15:45:20.793Z,5.48
2023-03-11T15:47:23.891Z,5.27
2023-03-11T15:49:28.059Z,5.34
2023-03-11T15:51:31.219Z,5.47
2023-03-11T15:53:38.013Z,5.36
2023-03-11T15:55:41.002Z,5.26
2023-03-11T15:57:44.063Z,5.18
2023-03-11T15:59:47.610Z,5.21
2023-03-11T16:01:50.466Z,5.24
2023-03-11T16:03:53.725Z,5.21
2023-03-11T16:05:59.442Z,5.21
2023-03-11T16:08:04.096Z,5.24
2023-03-11T16:10:16.118Z,5.36
2023-03-11T16:12:25.182Z,5.29
2023-03-11T16:14:29.166Z,5.21
2023-03-11T16:16:33.938Z,5.00
2023-03-11T16:18:38.957Z,4.93
2023-03-11T16:20:49.119Z,4.81
2023-03-11T16:22:59.304Z,4.74
2023-03-11T16:25:03.614Z,4.72
2023-03-11T16:27:07.688Z,4.64
2023-03-11T16:29:18.932Z,4.64
2023-03-11T16:31:23.310Z,4.61
2023-03-11T16:33:28.279Z,4.56
2023-03-11T16:35:32.450Z,4.47
2023-03-11T16:37:35.672Z,4.48
2023-03-11T16:39:39.284Z,4.46
2023-03-11T16:41:46.125Z,4.46
2023-03-11T16:43:51.090Z,4.48
2023-03-11T16:45:56.234Z,4.41
2023-03-11T16:47:59.856Z,4.30
2023-03-11T16:50:07.587Z,4.29
2023-03-11T16:52:10.671Z,4.21
2023-03-11T16:54:14.458Z,4.21
2023-03-11T16:56:18.985Z,4.22
2023-03-11T16:58:22.435Z,4.17
2023-03-11T17:00:27.849Z,4.23
2023-03-11T17:02:32.069Z,4.32
2023-03-11T17:04:35.617Z,4.29
2023-03-11T17:06:41.472Z,4.20
2023-03-11T17:08:49.475Z,4.20
2023-03-11T17:10:54.708Z,4.31
2023-03-11T17:13:07.427Z,4.36
2023-03-11T17:15:13.974Z,4.31
2023-03-11T17:17:44.577Z,4.34
2023-03-11T17:19:59.011Z,4.22
2023-03-11T17:22:21.481Z,4.09
2023-03-11T17:27:19.754Z,4.08
2023-03-11T17:29:26.344Z,4.09
2023-03-11T17:34:15.709Z,4.02
2023-03-11T17:36:41.065Z,4.00
2023-03-11T17:38:46.248Z,3.95
2023-03-11T17:40:50.590Z,3.82
2023-03-11T17:43:21.653Z,3.84
2023-03-11T17:45:25.542Z,3.77
2023-03-11T17:48:05.297Z,3.66
2023-03-11T17:50:35.610Z,3.60
2023-03-11T17:53:06.041Z,3.58
2023-03-11T17:55:25.452Z,3.63
2023-03-11T17:57:33.569Z,3.58
2023-03-11T17:59:41.240Z,3.59
2023-03-11T18:01:45.941Z,3.55
2023-03-11T18:03:50.612Z,3.48
2023-03-11T18:06:04.870Z,3.51
2023-03-11T18:08:55.177Z,3.56
2023-03-11T18:11:04.467Z,3.68
2023-03-11T18:13:10.888Z,3.61
2023-03-11T18:15:19.718Z,3.61
2023-03-11T18:17:25.800Z,3.61
2023-03-11T18:19:32.599Z,3.70
2023-03-11T18:21:36.292Z,3.70
2023-03-11T18:23:42.569Z,3.60
2023-03-11T18:26:03.820Z,3.68
2023-03-11T18:30:47.544Z,3.61
2023-03-11T18:33:14.931Z,3.64
2023-03-11T18:35:21.194Z,3.52
2023-03-11T18:37:27.600Z,3.57
2023-03-11T18:39:34.605Z,3.55
2023-03-11T18:41:39.404Z,3.63
2023-03-11T18:43:46.181Z,3.49
2023-03-11T18:45:58.949Z,3.57
2023-03-11T18:48:03.186Z,3.47
2023-03-11T18:50:08.434Z,3.47
2023-03-11T18:52:13.176Z,3.51
2023-03-11T18:54:25.942Z,3.53
2023-03-11T18:56:55.244Z,3.60
2023-03-11T18:59:04.481Z,3.51
2023-03-11T19:01:28.934Z,3.58
2023-03-11T19:03:33.421Z,3.46
2023-03-11T19:06:01.182Z,3.48
2023-03-11T19:08:07.937Z,3.23
2023-03-11T19:10:17.769Z,3.33
2023-03-11T19:12:32.497Z,3.30
2023-03-11T19:14:37.046Z,3.24
2023-03-11T19:16:43.936Z,3.30
2023-03-11T19:18:49.271Z,3.30
2023-03-11T19:21:15.072Z,3.36
2023-03-11T19:23:21.964Z,3.25
2023-03-11T19:26:02.455Z,3.18
2023-03-11T19:28:17.897Z,3.11
2023-03-11T19:30:31.927Z,3.08
2023-03-11T19:32:42.875Z,3.10
2023-03-11T19:34:52.152Z,3.12
2023-03-11T19:37:18.600Z,3.14
2023-03-11T19:39:30.907Z,3.12
2023-03-11T19:41:40.166Z,3.16
2023-03-11T19:44:06.493Z,3.08
2023-03-11T19:46:22.012Z,3.03
2023-03-11T19:49:06.836Z,2.96
2023-03-11T19:51:13.295Z,2.97
2023-03-11T19:53:28.855Z,2.86
2023-03-11T19:58:32.322Z,2.83
2023-03-11T20:00:41.474Z,2.77
2023-03-11T20:03:14.037Z,2.77
2023-03-11T20:05:18.894Z,2.66
2023-03-11T20:07:26.247Z,2.60
2023-03-11T20:09:34.592Z,2.57
2023-03-11T20:11:40.991Z,2.47
2023-03-11T20:13:44.701Z,2.47
2023-03-11T20:15:51.584Z,2.57
2023-03-11T20:17:56.963Z,2.47
2023-03-11T20:20:01.613Z,2.42
2023-03-11T20:22:06.722Z,2.40
2023-03-11T20:24:11.868Z,2.34
2023-03-11T20:26:20.238Z,2.31
2023-03-11T20:28:45.526Z,2.33
2023-03-11T20:30:51.148Z,2.26
2023-03-11T20:35:43.059Z,2.12
2023-03-11T20:38:30.426Z,2.11
2023-03-11T20:40:40.563Z,2.11
2023-03-11T20:42:47.542Z,2.12
2023-03-11T20:44:58.031Z,2.09
2023-03-11T20:47:06.356Z,2.06
2023-03-11T20:49:11.295Z,2.04
2023-03-11T20:51:23.245Z,2.03
2023-03-11T20:53:28.830Z,1.99
2023-03-11T20:55:33.212Z,1.92
2023-03-11T20:57:59.458Z,1.91
2023-03-11T21:00:22.616Z,1.90
2023-03-11T21:02:39.310Z,1.95
2023-03-11T21:04:45.956Z,1.90
2023-03-11T21:06:55.069Z,1.88
2023-03-11T21:09:06.307Z,1.87
2023-03-11T21:13:36.360Z,1.80
2023-03-11T21:15:41.662Z,1.82
2023-03-11T21:17:44.929Z,1.75
2023-03-11T21:19:49.828Z,1.79
2023-03-11T21:21:53.837Z,1.75
2023-03-11T21:23:56.740Z,1.69
2023-03-11T21:26:01.774Z,1.63
2023-03-11T21:28:05.338Z,1.68
2023-03-11T21:30:09.129Z,1.60
2023-03-11T21:32:12.390Z,1.52
2023-03-11T21:34:18.712Z,1.63
2023-03-11T21:36:22.785Z,1.62
2023-03-11T21:38:36.275Z,1.54
2023-03-11T21:40:39.415Z,1.51
2023-03-11T21:43:04.560Z,1.52
2023-03-11T21:45:29.865Z,1.56
2023-03-11T21:47:33.113Z,1.60
2023-03-11T21:49:37.223Z,1.64
2023-03-11T21:51:48.686Z,1.48
2023-03-11T21:53:53.109Z,1.53
2023-03-11T21:55:55.919Z,1.58
2023-03-11T21:57:59.149Z,1.65
2023-03-11T22:00:01.729Z,1.66
2023-03-11T22:02:07.250Z,1.62
2023-03-11T22:04:10.718Z,1.60
2023-03-11T22:06:13.883Z,1.61
2023-03-11T22:08:19.237Z,1.64
2023-03-11T22:10:27.697Z,1.68
2023-03-11T22:12:30.765Z,1.69
2023-03-11T22:14:34.344Z,1.65
2023-03-11T22:16:38.335Z,1.68
2023-03-11T22:18:41.414Z,1.66
2023-03-11T22:20:45.438Z,1.74
2023-03-11T22:22:48.956Z,1.75
2023-03-11T22:24:51.629Z,1.69
2023-03-11T22:26:56.083Z,1.66
2023-03-11T22:29:00.474Z,1.70
2023-03-11T22:31:12.360Z,1.62
2023-03-11T22:33:14.990Z,1.68
2023-03-11T22:35:24.909Z,1.66
2023-03-11T22:37:29.832Z,1.57
2023-03-11T22:39:33.030Z,1.54
2023-03-11T22:41:36.561Z,1.64
2023-03-11T22:43:40.069Z,1.45
2023-03-11T22:45:44.990Z,1.49
2023-03-11T22:47:51.921Z,1.49
2023-03-11T22:50:14.905Z,1.51
2023-03-11T22:52:19.239Z,1.56
2023-03-11T22:54:27.156Z,1.45
2023-03-11T22:56:30.663Z,1.43
2023-03-11T22:58:37.226Z,1.43
2023-03-11T23:00:48.056Z,1.36
2023-03-11T23:03:00.405Z,1.35
2023-03-11T23:05:04.995Z,1.26
2023-03-11T23:07:09.511Z,1.35
2023-03-11T23:09:13.524Z,1.31
2023-03-11T23:11:19.026Z,1.22
2023-03-11T23:13:22.300Z,1.25
2023-03-11T23:15:25.207Z,1.27
2023-03-11T23:17:27.909Z,1.22
2023-03-11T23:19:31.270Z,1.20
2023-03-11T23:21:34.717Z,1.20
2023-03-11T23:23:38.488Z,1.24
